Milas, Turkey

8:38 AM EEST on August 29, 2014 (GMT +0300)
Bodrum | Change Station
CLOSE
Current Station
Airport
Location: Milas,
Elevation: 20 ft
Nearby Weather Stations

Elev 20 ft 37.25 °N, 27.67 °E | Updated 18 minutes ago

Clear
Clear
75 °F
Feels Like 75 °F
N
2
Wind Variable Wind from Variable

Today
High -- | Low -- °F
--% Chance of Precip.
Yesterday
High -- | Low -- °F
Precip. -- in
6:37 AM 7:42 PM
Waxing Crescent, 12% visible
Pressure 29.74 in
Visibility -9999.0 miles
Clouds
Dew Point 63 °F
Humidity 65%
Rainfall 0.00 in
Snow Depth Not available.
UV Not available.
Pollen Not available.
Air Quality Not available.
Flu Activity Not available.
METAR LTFE 290520Z VRB02KT CAVOK 24/17 Q1007 NOSIG RMK RWY10 VRB01KT

More Conditions Fewer Conditions

Pressure 29.74 in
Visibility -9999.0 miles
Clouds
Dew Point 63 °F
Humidity 65%
Rainfall 0.00 in
Snow Depth Not available.
UV Not available.
Pollen Not available.
Air Quality Not available.
Flu Activity Not available.
METAR LTFE 290520Z VRB02KT CAVOK 24/17 Q1007 NOSIG RMK RWY10 VRB01KT

More Conditions Fewer Conditions

10-Day Weather Forecast

Almanac

Astronomy

Aug. 29, 2014 Rise Set
Actual Time 6:37 AM EEST 7:42 PM EEST
Civil Twilight 6:10 AM EEST 8:09 PM EEST
Nautical Twilight 5:38 AM EEST 8:41 PM EEST
Astronomical Twilight 5:05 AM EEST 9:14 PM EEST
Moon 10:02 AM EEST 9:35 PM EEST
Length of Visible Light 13h 59m
Length of Day
13h 05m
Tomorrow will be 2m 16s shorter.
Waxing Crescent, 12% of the Moon is Illuminated
Today
Waxing Crescent
Sep 2
First Quarter
Sep 8
Full
Sep 15
Last Quarter
Sep 24
New

Yesterday's Extremes

Country Highs Country Lows

Community

WunderPhotos

Upload Photos

1,748,196 photos uploaded!

Nearby

Snow Depth

Not available.

Earthquake Activity

City Distance Mag. Time & Date
No recent earthquake activity has been reported nearby.
Minimum magnitude displayed is 2.5.

Coastal Water Temperatures

Place Temperature
No Stations Reporting

Nearby Weather Stations